sensor_id;sensor_type;location;lat;lon;timestamp;P1;durP1;ratioP1;P2;durP2;ratioP2
37777;SDS011;23615;51.506;7.678;2023-01-25T00:01:13;15.53;;;13.90;;
37777;SDS011;23615;51.506;7.678;2023-01-25T00:03:39;15.13;;;13.57;;
37777;SDS011;23615;51.506;7.678;2023-01-25T00:06:04;14.23;;;12.83;;
37777;SDS011;23615;51.506;7.678;2023-01-25T00:08:29;15.27;;;13.67;;
37777;SDS011;23615;51.506;7.678;2023-01-25T00:10:55;16.00;;;14.43;;
37777;SDS011;23615;51.506;7.678;2023-01-25T00:13:20;16.37;;;14.63;;
37777;SDS011;23615;51.506;7.678;2023-01-25T00:15:45;18.10;;;16.20;;
37777;SDS011;23615;51.506;7.678;2023-01-25T00:18:10;16.00;;;14.33;;
37777;SDS011;23615;51.506;7.678;2023-01-25T00:20:36;17.20;;;14.87;;
37777;SDS011;23615;51.506;7.678;2023-01-25T00:23:01;16.40;;;14.47;;
37777;SDS011;23615;51.506;7.678;2023-01-25T00:25:26;16.83;;;15.03;;
37777;SDS011;23615;51.506;7.678;2023-01-25T00:27:52;16.60;;;14.90;;
37777;SDS011;23615;51.506;7.678;2023-01-25T00:30:17;14.70;;;13.20;;
37777;SDS011;23615;51.506;7.678;2023-01-25T00:32:52;14.73;;;13.23;;
37777;SDS011;23615;51.506;7.678;2023-01-25T00:35:22;14.23;;;12.73;;
37777;SDS011;23615;51.506;7.678;2023-01-25T00:37:47;16.87;;;14.63;;
37777;SDS011;23615;51.506;7.678;2023-01-25T00:40:17;16.15;;;14.43;;
37777;SDS011;23615;51.506;7.678;2023-01-25T00:42:42;15.63;;;13.33;;
37777;SDS011;23615;51.506;7.678;2023-01-25T00:45:09;15.98;;;13.35;;
37777;SDS011;23615;51.506;7.678;2023-01-25T00:47:36;15.18;;;13.10;;
37777;SDS011;23615;51.506;7.678;2023-01-25T00:50:01;17.50;;;15.43;;
37777;SDS011;23615;51.506;7.678;2023-01-25T00:52:26;16.63;;;14.77;;
37777;SDS011;23615;51.506;7.678;2023-01-25T00:54:52;17.48;;;15.43;;
37777;SDS011;23615;51.506;7.678;2023-01-25T00:57:18;16.20;;;14.17;;
37777;SDS011;23615;51.506;7.678;2023-01-25T00:59:43;16.27;;;14.50;;
37777;SDS011;23615;51.506;7.678;2023-01-25T01:02:10;15.10;;;13.50;;
37777;SDS011;23615;51.506;7.678;2023-01-25T01:04:36;15.13;;;13.48;;
37777;SDS011;23615;51.506;7.678;2023-01-25T01:07:01;16.08;;;14.30;;
37777;SDS011;23615;51.506;7.678;2023-01-25T01:09:26;15.13;;;12.63;;
37777;SDS011;23615;51.506;7.678;2023-01-25T01:11:52;17.70;;;15.23;;
37777;SDS011;23615;51.506;7.678;2023-01-25T01:14:18;16.45;;;13.95;;
37777;SDS011;23615;51.506;7.678;2023-01-25T01:16:45;16.48;;;13.77;;
37777;SDS011;23615;51.506;7.678;2023-01-25T01:19:10;17.30;;;14.88;;
37777;SDS011;23615;51.506;7.678;2023-01-25T01:21:36;15.83;;;13.43;;
37777;SDS011;23615;51.506;7.678;2023-01-25T01:24:02;13.52;;;12.02;;
37777;SDS011;23615;51.506;7.678;2023-01-25T01:26:27;13.60;;;11.77;;
37777;SDS011;23615;51.506;7.678;2023-01-25T01:28:52;13.97;;;12.47;;
37777;SDS011;23615;51.506;7.678;2023-01-25T01:31:19;17.37;;;13.93;;
37777;SDS011;23615;51.506;7.678;2023-01-25T01:33:49;15.43;;;13.55;;
37777;SDS011;23615;51.506;7.678;2023-01-25T01:36:17;16.05;;;13.10;;
37777;SDS011;23615;51.506;7.678;2023-01-25T01:38:44;15.85;;;13.32;;
37777;SDS011;23615;51.506;7.678;2023-01-25T01:41:10;13.70;;;11.97;;
37777;SDS011;23615;51.506;7.678;2023-01-25T01:43:36;13.27;;;11.32;;
37777;SDS011;23615;51.506;7.678;2023-01-25T01:46:08;13.77;;;11.77;;
37777;SDS011;23615;51.506;7.678;2023-01-25T01:51:13;16.17;;;13.10;;
37777;SDS011;23615;51.506;7.678;2023-01-25T01:53:41;14.70;;;12.95;;
37777;SDS011;23615;51.506;7.678;2023-01-25T01:56:10;14.40;;;12.87;;
37777;SDS011;23615;51.506;7.678;2023-01-25T01:58:40;14.23;;;12.23;;
37777;SDS011;23615;51.506;7.678;2023-01-25T02:01:07;13.77;;;12.00;;
37777;SDS011;23615;51.506;7.678;2023-01-25T02:03:33;14.13;;;12.55;;
37777;SDS011;23615;51.506;7.678;2023-01-25T02:06:03;14.40;;;12.18;;
37777;SDS011;23615;51.506;7.678;2023-01-25T02:08:35;13.98;;;12.07;;
37777;SDS011;23615;51.506;7.678;2023-01-25T02:11:01;13.38;;;11.30;;
37777;SDS011;23615;51.506;7.678;2023-01-25T02:13:28;12.63;;;11.13;;
37777;SDS011;23615;51.506;7.678;2023-01-25T02:15:55;12.73;;;10.35;;
37777;SDS011;23615;51.506;7.678;2023-01-25T02:18:21;12.50;;;10.45;;
37777;SDS011;23615;51.506;7.678;2023-01-25T02:20:52;16.70;;;14.27;;
37777;SDS011;23615;51.506;7.678;2023-01-25T02:25:57;15.27;;;13.02;;
37777;SDS011;23615;51.506;7.678;2023-01-25T02:31:06;14.43;;;12.50;;
37777;SDS011;23615;51.506;7.678;2023-01-25T02:33:31;15.43;;;13.23;;
37777;SDS011;23615;51.506;7.678;2023-01-25T02:38:25;16.33;;;13.18;;
37777;SDS011;23615;51.506;7.678;2023-01-25T02:40:58;14.60;;;12.23;;
37777;SDS011;23615;51.506;7.678;2023-01-25T02:43:33;16.02;;;12.98;;
37777;SDS011;23615;51.506;7.678;2023-01-25T02:46:00;18.40;;;14.30;;
37777;SDS011;23615;51.506;7.678;2023-01-25T02:48:38;16.90;;;13.60;;
37777;SDS011;23615;51.506;7.678;2023-01-25T02:51:07;14.77;;;12.13;;
37777;SDS011;23615;51.506;7.678;2023-01-25T02:53:33;15.05;;;12.27;;
37777;SDS011;23615;51.506;7.678;2023-01-25T02:55:59;18.40;;;14.90;;
37777;SDS011;23615;51.506;7.678;2023-01-25T02:58:24;16.83;;;13.47;;
37777;SDS011;23615;51.506;7.678;2023-01-25T03:00:49;18.00;;;14.60;;
37777;SDS011;23615;51.506;7.678;2023-01-25T03:03:15;16.77;;;13.73;;
37777;SDS011;23615;51.506;7.678;2023-01-25T03:05:40;18.43;;;14.33;;
37777;SDS011;23615;51.506;7.678;2023-01-25T03:08:05;19.80;;;15.00;;
37777;SDS011;23615;51.506;7.678;2023-01-25T03:10:31;19.57;;;15.50;;
37777;SDS011;23615;51.506;7.678;2023-01-25T03:12:56;19.83;;;15.43;;
37777;SDS011;23615;51.506;7.678;2023-01-25T03:15:21;20.07;;;16.03;;
37777;SDS011;23615;51.506;7.678;2023-01-25T03:17:46;19.97;;;15.83;;
37777;SDS011;23615;51.506;7.678;2023-01-25T03:20:12;19.87;;;16.03;;
37777;SDS011;23615;51.506;7.678;2023-01-25T03:22:37;21.80;;;16.20;;
37777;SDS011;23615;51.506;7.678;2023-01-25T03:25:02;20.43;;;16.17;;
37777;SDS011;23615;51.506;7.678;2023-01-25T03:27:28;20.83;;;16.58;;
37777;SDS011;23615;51.506;7.678;2023-01-25T03:29:54;20.10;;;15.53;;
37777;SDS011;23615;51.506;7.678;2023-01-25T03:32:19;19.60;;;14.80;;
37777;SDS011;23615;51.506;7.678;2023-01-25T03:34:45;21.80;;;16.10;;
37777;SDS011;23615;51.506;7.678;2023-01-25T03:37:10;21.17;;;15.67;;
37777;SDS011;23615;51.506;7.678;2023-01-25T03:39:35;20.77;;;16.20;;
37777;SDS011;23615;51.506;7.678;2023-01-25T03:42:01;18.50;;;13.87;;
37777;SDS011;23615;51.506;7.678;2023-01-25T03:44:26;19.17;;;14.20;;
37777;SDS011;23615;51.506;7.678;2023-01-25T03:46:51;17.70;;;13.23;;
37777;SDS011;23615;51.506;7.678;2023-01-25T03:49:17;19.30;;;15.77;;
37777;SDS011;23615;51.506;7.678;2023-01-25T03:51:42;20.73;;;16.67;;
37777;SDS011;23615;51.506;7.678;2023-01-25T03:54:08;23.63;;;17.03;;
37777;SDS011;23615;51.506;7.678;2023-01-25T03:56:34;24.05;;;17.75;;
37777;SDS011;23615;51.506;7.678;2023-01-25T03:58:59;25.55;;;17.73;;
37777;SDS011;23615;51.506;7.678;2023-01-25T04:01:25;19.17;;;14.57;;
37777;SDS011;23615;51.506;7.678;2023-01-25T04:03:50;22.67;;;16.23;;
37777;SDS011;23615;51.506;7.678;2023-01-25T04:06:15;22.73;;;15.93;;
37777;SDS011;23615;51.506;7.678;2023-01-25T04:08:41;25.13;;;17.43;;
37777;SDS011;23615;51.506;7.678;2023-01-25T04:11:07;23.67;;;16.63;;
37777;SDS011;23615;51.506;7.678;2023-01-25T04:13:33;20.92;;;16.05;;
37777;SDS011;23615;51.506;7.678;2023-01-25T04:16:00;19.50;;;14.10;;
37777;SDS011;23615;51.506;7.678;2023-01-25T04:18:29;20.60;;;14.57;;
37777;SDS011;23615;51.506;7.678;2023-01-25T04:20:55;24.03;;;17.23;;
37777;SDS011;23615;51.506;7.678;2023-01-25T04:23:21;21.93;;;15.67;;
37777;SDS011;23615;51.506;7.678;2023-01-25T04:25:54;22.50;;;16.08;;
37777;SDS011;23615;51.506;7.678;2023-01-25T04:28:24;22.80;;;16.42;;
37777;SDS011;23615;51.506;7.678;2023-01-25T04:30:50;22.93;;;15.97;;
37777;SDS011;23615;51.506;7.678;2023-01-25T04:33:16;22.42;;;15.48;;
37777;SDS011;23615;51.506;7.678;2023-01-25T04:35:42;22.57;;;15.83;;
37777;SDS011;23615;51.506;7.678;2023-01-25T04:38:08;21.77;;;15.07;;
37777;SDS011;23615;51.506;7.678;2023-01-25T04:40:34;20.75;;;16.10;;
37777;SDS011;23615;51.506;7.678;2023-01-25T04:43:00;22.17;;;15.93;;
37777;SDS011;23615;51.506;7.678;2023-01-25T04:45:25;20.10;;;14.13;;
37777;SDS011;23615;51.506;7.678;2023-01-25T04:47:57;20.83;;;14.85;;
37777;SDS011;23615;51.506;7.678;2023-01-25T04:50:24;23.15;;;16.50;;
37777;SDS011;23615;51.506;7.678;2023-01-25T04:52:50;19.17;;;14.73;;
37777;SDS011;23615;51.506;7.678;2023-01-25T04:55:16;20.98;;;15.02;;
37777;SDS011;23615;51.506;7.678;2023-01-25T04:57:41;23.80;;;16.17;;
37777;SDS011;23615;51.506;7.678;2023-01-25T05:00:07;22.93;;;15.20;;
37777;SDS011;23615;51.506;7.678;2023-01-25T05:02:32;21.17;;;15.68;;
37777;SDS011;23615;51.506;7.678;2023-01-25T05:04:58;23.10;;;16.60;;
37777;SDS011;23615;51.506;7.678;2023-01-25T05:07:23;20.17;;;15.90;;
37777;SDS011;23615;51.506;7.678;2023-01-25T05:09:48;20.67;;;16.10;;
37777;SDS011;23615;51.506;7.678;2023-01-25T05:12:14;22.63;;;16.37;;
37777;SDS011;23615;51.506;7.678;2023-01-25T05:14:39;21.10;;;15.73;;
37777;SDS011;23615;51.506;7.678;2023-01-25T05:17:05;23.30;;;17.60;;
37777;SDS011;23615;51.506;7.678;2023-01-25T05:19:31;22.77;;;17.80;;
37777;SDS011;23615;51.506;7.678;2023-01-25T05:21:57;23.13;;;17.87;;
37777;SDS011;23615;51.506;7.678;2023-01-25T05:24:25;22.77;;;17.00;;
37777;SDS011;23615;51.506;7.678;2023-01-25T05:26:51;19.50;;;14.10;;
37777;SDS011;23615;51.506;7.678;2023-01-25T05:29:28;18.45;;;13.82;;
37777;SDS011;23615;51.506;7.678;2023-01-25T05:31:55;19.35;;;13.63;;
37777;SDS011;23615;51.506;7.678;2023-01-25T05:34:22;19.77;;;12.70;;
37777;SDS011;23615;51.506;7.678;2023-01-25T05:36:47;23.52;;;14.65;;
37777;SDS011;23615;51.506;7.678;2023-01-25T05:39:13;20.65;;;14.18;;
37777;SDS011;23615;51.506;7.678;2023-01-25T05:41:38;19.13;;;13.47;;
37777;SDS011;23615;51.506;7.678;2023-01-25T05:44:03;18.93;;;12.53;;
37777;SDS011;23615;51.506;7.678;2023-01-25T05:46:29;18.07;;;12.90;;
37777;SDS011;23615;51.506;7.678;2023-01-25T05:48:54;15.53;;;11.13;;
37777;SDS011;23615;51.506;7.678;2023-01-25T05:51:20;16.42;;;11.38;;
37777;SDS011;23615;51.506;7.678;2023-01-25T05:53:45;16.00;;;11.00;;
37777;SDS011;23615;51.506;7.678;2023-01-25T05:56:10;15.00;;;10.30;;
37777;SDS011;23615;51.506;7.678;2023-01-25T05:58:36;18.57;;;12.03;;
37777;SDS011;23615;51.506;7.678;2023-01-25T06:01:05;16.95;;;11.27;;
37777;SDS011;23615;51.506;7.678;2023-01-25T06:03:32;15.15;;;10.55;;
37777;SDS011;23615;51.506;7.678;2023-01-25T06:05:58;16.27;;;11.55;;
37777;SDS011;23615;51.506;7.678;2023-01-25T06:08:28;16.98;;;11.93;;
37777;SDS011;23615;51.506;7.678;2023-01-25T06:10:54;13.35;;;9.55;;
37777;SDS011;23615;51.506;7.678;2023-01-25T06:13:19;14.83;;;10.20;;
37777;SDS011;23615;51.506;7.678;2023-01-25T06:15:53;12.63;;;9.60;;
37777;SDS011;23615;51.506;7.678;2023-01-25T06:18:19;12.13;;;8.60;;
37777;SDS011;23615;51.506;7.678;2023-01-25T06:20:44;14.33;;;8.57;;
37777;SDS011;23615;51.506;7.678;2023-01-25T06:23:09;11.70;;;8.73;;
37777;SDS011;23615;51.506;7.678;2023-01-25T06:25:35;12.60;;;8.73;;
37777;SDS011;23615;51.506;7.678;2023-01-25T06:28:00;14.00;;;8.83;;
37777;SDS011;23615;51.506;7.678;2023-01-25T06:30:25;12.93;;;8.47;;
37777;SDS011;23615;51.506;7.678;2023-01-25T06:32:51;12.37;;;8.77;;
37777;SDS011;23615;51.506;7.678;2023-01-25T06:35:16;10.03;;;6.97;;
37777;SDS011;23615;51.506;7.678;2023-01-25T06:37:41;11.47;;;7.90;;
37777;SDS011;23615;51.506;7.678;2023-01-25T06:40:07;12.50;;;8.85;;
37777;SDS011;23615;51.506;7.678;2023-01-25T06:42:35;12.38;;;9.07;;
37777;SDS011;23615;51.506;7.678;2023-01-25T06:45:00;11.18;;;8.50;;
37777;SDS011;23615;51.506;7.678;2023-01-25T06:47:25;11.48;;;7.97;;
37777;SDS011;23615;51.506;7.678;2023-01-25T06:49:51;12.82;;;9.20;;
37777;SDS011;23615;51.506;7.678;2023-01-25T06:52:16;12.57;;;8.73;;
37777;SDS011;23615;51.506;7.678;2023-01-25T06:54:41;14.37;;;9.73;;
37777;SDS011;23615;51.506;7.678;2023-01-25T06:57:07;13.73;;;9.33;;
37777;SDS011;23615;51.506;7.678;2023-01-25T06:59:34;13.68;;;9.50;;
37777;SDS011;23615;51.506;7.678;2023-01-25T07:01:59;13.40;;;9.43;;
37777;SDS011;23615;51.506;7.678;2023-01-25T07:04:25;14.27;;;10.60;;
37777;SDS011;23615;51.506;7.678;2023-01-25T07:06:50;13.23;;;9.43;;
37777;SDS011;23615;51.506;7.678;2023-01-25T07:09:15;12.50;;;8.87;;
37777;SDS011;23615;51.506;7.678;2023-01-25T07:11:40;11.73;;;8.57;;
37777;SDS011;23615;51.506;7.678;2023-01-25T07:14:06;12.67;;;9.37;;
37777;SDS011;23615;51.506;7.678;2023-01-25T07:16:31;13.90;;;9.20;;
37777;SDS011;23615;51.506;7.678;2023-01-25T07:19:01;16.30;;;11.10;;
37777;SDS011;23615;51.506;7.678;2023-01-25T07:21:29;17.85;;;11.30;;
37777;SDS011;23615;51.506;7.678;2023-01-25T07:23:55;15.67;;;10.67;;
37777;SDS011;23615;51.506;7.678;2023-01-25T07:26:26;15.10;;;11.55;;
37777;SDS011;23615;51.506;7.678;2023-01-25T07:28:52;15.63;;;10.73;;
37777;SDS011;23615;51.506;7.678;2023-01-25T07:31:18;17.42;;;11.57;;
37777;SDS011;23615;51.506;7.678;2023-01-25T07:33:52;13.38;;;10.38;;
37777;SDS011;23615;51.506;7.678;2023-01-25T07:36:18;14.23;;;10.83;;
37777;SDS011;23615;51.506;7.678;2023-01-25T07:38:44;18.63;;;12.45;;
37777;SDS011;23615;51.506;7.678;2023-01-25T07:41:10;18.00;;;11.90;;
37777;SDS011;23615;51.506;7.678;2023-01-25T07:43:35;19.25;;;12.82;;
37777;SDS011;23615;51.506;7.678;2023-01-25T07:46:02;17.37;;;11.93;;
37777;SDS011;23615;51.506;7.678;2023-01-25T07:48:29;17.70;;;11.23;;
37777;SDS011;23615;51.506;7.678;2023-01-25T07:51:00;16.38;;;10.85;;
37777;SDS011;23615;51.506;7.678;2023-01-25T07:53:37;17.35;;;12.60;;
37777;SDS011;23615;51.506;7.678;2023-01-25T07:56:04;16.20;;;11.43;;
37777;SDS011;23615;51.506;7.678;2023-01-25T07:58:30;19.75;;;12.85;;
37777;SDS011;23615;51.506;7.678;2023-01-25T08:00:55;24.70;;;13.13;;
37777;SDS011;23615;51.506;7.678;2023-01-25T08:03:20;17.17;;;11.83;;
37777;SDS011;23615;51.506;7.678;2023-01-25T08:05:46;17.57;;;12.03;;
37777;SDS011;23615;51.506;7.678;2023-01-25T08:08:12;16.40;;;12.27;;
37777;SDS011;23615;51.506;7.678;2023-01-25T08:10:37;17.40;;;11.87;;
37777;SDS011;23615;51.506;7.678;2023-01-25T08:13:02;17.37;;;12.13;;
37777;SDS011;23615;51.506;7.678;2023-01-25T08:15:28;18.20;;;11.60;;
37777;SDS011;23615;51.506;7.678;2023-01-25T08:17:53;20.70;;;12.87;;
37777;SDS011;23615;51.506;7.678;2023-01-25T08:20:18;18.20;;;11.17;;
37777;SDS011;23615;51.506;7.678;2023-01-25T08:22:45;18.13;;;12.00;;
37777;SDS011;23615;51.506;7.678;2023-01-25T08:25:11;18.27;;;12.38;;
37777;SDS011;23615;51.506;7.678;2023-01-25T08:27:36;17.27;;;11.63;;
37777;SDS011;23615;51.506;7.678;2023-01-25T08:30:02;16.70;;;11.83;;
37777;SDS011;23615;51.506;7.678;2023-01-25T08:32:27;19.50;;;12.80;;
37777;SDS011;23615;51.506;7.678;2023-01-25T08:34:52;19.13;;;12.23;;
37777;SDS011;23615;51.506;7.678;2023-01-25T08:37:18;19.37;;;12.80;;
37777;SDS011;23615;51.506;7.678;2023-01-25T08:39:43;18.80;;;12.43;;
37777;SDS011;23615;51.506;7.678;2023-01-25T08:42:08;18.67;;;12.33;;
37777;SDS011;23615;51.506;7.678;2023-01-25T08:44:34;16.77;;;11.38;;
37777;SDS011;23615;51.506;7.678;2023-01-25T08:46:59;19.42;;;12.93;;
37777;SDS011;23615;51.506;7.678;2023-01-25T08:49:24;20.37;;;13.30;;
37777;SDS011;23615;51.506;7.678;2023-01-25T08:51:51;17.85;;;12.15;;
37777;SDS011;23615;51.506;7.678;2023-01-25T08:54:17;15.93;;;10.70;;
37777;SDS011;23615;51.506;7.678;2023-01-25T08:56:42;15.95;;;10.98;;
37777;SDS011;23615;51.506;7.678;2023-01-25T08:59:11;19.77;;;13.07;;
37777;SDS011;23615;51.506;7.678;2023-01-25T09:01:37;20.27;;;13.45;;
37777;SDS011;23615;51.506;7.678;2023-01-25T09:04:02;19.53;;;13.23;;
37777;SDS011;23615;51.506;7.678;2023-01-25T09:06:27;18.67;;;13.57;;
37777;SDS011;23615;51.506;7.678;2023-01-25T09:08:53;21.90;;;14.40;;
37777;SDS011;23615;51.506;7.678;2023-01-25T09:11:19;20.60;;;13.97;;
37777;SDS011;23615;51.506;7.678;2023-01-25T09:13:46;18.93;;;12.47;;
37777;SDS011;23615;51.506;7.678;2023-01-25T09:16:17;16.10;;;11.18;;
37777;SDS011;23615;51.506;7.678;2023-01-25T09:18:46;15.18;;;10.63;;
37777;SDS011;23615;51.506;7.678;2023-01-25T09:21:13;16.20;;;10.60;;
37777;SDS011;23615;51.506;7.678;2023-01-25T09:23:40;18.88;;;11.85;;
37777;SDS011;23615;51.506;7.678;2023-01-25T09:26:08;17.80;;;11.93;;
37777;SDS011;23615;51.506;7.678;2023-01-25T09:28:34;18.10;;;11.93;;
37777;SDS011;23615;51.506;7.678;2023-01-25T09:31:00;16.77;;;11.33;;
37777;SDS011;23615;51.506;7.678;2023-01-25T09:33:30;17.77;;;12.02;;
37777;SDS011;23615;51.506;7.678;2023-01-25T09:35:57;20.77;;;13.45;;
37777;SDS011;23615;51.506;7.678;2023-01-25T09:38:22;23.60;;;14.80;;
37777;SDS011;23615;51.506;7.678;2023-01-25T09:40:56;20.77;;;14.20;;
37777;SDS011;23615;51.506;7.678;2023-01-25T09:46:52;21.20;;;14.05;;
37777;SDS011;23615;51.506;7.678;2023-01-25T09:49:09;22.17;;;14.05;;
37777;SDS011;23615;51.506;7.678;2023-01-25T09:54:24;18.17;;;13.25;;
37777;SDS011;23615;51.506;7.678;2023-01-25T09:56:52;18.55;;;12.30;;
37777;SDS011;23615;51.506;7.678;2023-01-25T09:59:19;15.98;;;11.60;;
37777;SDS011;23615;51.506;7.678;2023-01-25T10:01:52;20.43;;;13.60;;
37777;SDS011;23615;51.506;7.678;2023-01-25T10:07:10;20.63;;;14.15;;
37777;SDS011;23615;51.506;7.678;2023-01-25T10:09:53;23.25;;;15.10;;
37777;SDS011;23615;51.506;7.678;2023-01-25T10:12:24;21.00;;;13.68;;
37777;SDS011;23615;51.506;7.678;2023-01-25T10:14:51;19.70;;;12.83;;
37777;SDS011;23615;51.506;7.678;2023-01-25T10:20:17;19.52;;;13.30;;
37777;SDS011;23615;51.506;7.678;2023-01-25T10:22:52;18.83;;;12.93;;
37777;SDS011;23615;51.506;7.678;2023-01-25T10:25:45;19.08;;;13.10;;
37777;SDS011;23615;51.506;7.678;2023-01-25T10:33:45;20.13;;;13.25;;
37777;SDS011;23615;51.506;7.678;2023-01-25T10:36:12;23.77;;;15.23;;
37777;SDS011;23615;51.506;7.678;2023-01-25T10:38:40;20.45;;;14.13;;
37777;SDS011;23615;51.506;7.678;2023-01-25T10:41:09;22.05;;;15.07;;
37777;SDS011;23615;51.506;7.678;2023-01-25T10:43:40;24.27;;;14.65;;
37777;SDS011;23615;51.506;7.678;2023-01-25T10:46:14;24.03;;;15.43;;
37777;SDS011;23615;51.506;7.678;2023-01-25T10:48:43;24.85;;;14.98;;
37777;SDS011;23615;51.506;7.678;2023-01-25T10:51:08;23.03;;;15.07;;
37777;SDS011;23615;51.506;7.678;2023-01-25T10:53:57;27.05;;;17.17;;
37777;SDS011;23615;51.506;7.678;2023-01-25T10:56:24;21.70;;;14.35;;
37777;SDS011;23615;51.506;7.678;2023-01-25T10:58:50;23.58;;;15.30;;
37777;SDS011;23615;51.506;7.678;2023-01-25T11:01:29;22.02;;;14.32;;
37777;SDS011;23615;51.506;7.678;2023-01-25T11:03:56;22.75;;;15.02;;
37777;SDS011;23615;51.506;7.678;2023-01-25T11:06:33;25.48;;;15.90;;
37777;SDS011;23615;51.506;7.678;2023-01-25T11:09:01;22.52;;;15.50;;
37777;SDS011;23615;51.506;7.678;2023-01-25T11:11:57;17.92;;;12.85;;
37777;SDS011;23615;51.506;7.678;2023-01-25T11:14:25;20.58;;;13.55;;
37777;SDS011;23615;51.506;7.678;2023-01-25T11:16:51;23.20;;;14.75;;
37777;SDS011;23615;51.506;7.678;2023-01-25T11:19:38;24.85;;;14.98;;
37777;SDS011;23615;51.506;7.678;2023-01-25T11:22:09;23.95;;;13.93;;
37777;SDS011;23615;51.506;7.678;2023-01-25T11:24:45;24.25;;;14.95;;
37777;SDS011;23615;51.506;7.678;2023-01-25T11:30:06;24.98;;;15.60;;
37777;SDS011;23615;51.506;7.678;2023-01-25T11:32:34;23.55;;;14.73;;
37777;SDS011;23615;51.506;7.678;2023-01-25T11:35:05;24.65;;;15.57;;
37777;SDS011;23615;51.506;7.678;2023-01-25T11:37:58;25.55;;;15.10;;
37777;SDS011;23615;51.506;7.678;2023-01-25T11:40:48;23.60;;;14.83;;
37777;SDS011;23615;51.506;7.678;2023-01-25T11:46:24;22.05;;;13.25;;
37777;SDS011;23615;51.506;7.678;2023-01-25T11:57:21;26.85;;;16.50;;
37777;SDS011;23615;51.506;7.678;2023-01-25T11:59:57;22.13;;;13.82;;
37777;SDS011;23615;51.506;7.678;2023-01-25T12:05:20;28.33;;;16.85;;
37777;SDS011;23615;51.506;7.678;2023-01-25T12:10:53;26.40;;;16.50;;
37777;SDS011;23615;51.506;7.678;2023-01-25T12:36:32;24.55;;;16.13;;
37777;SDS011;23615;51.506;7.678;2023-01-25T12:41:37;23.50;;;15.03;;
37777;SDS011;23615;51.506;7.678;2023-01-25T12:44:20;37.08;;;18.58;;
37777;SDS011;23615;51.506;7.678;2023-01-25T12:52:20;27.08;;;17.13;;
37777;SDS011;23615;51.506;7.678;2023-01-25T12:54:50;29.40;;;17.42;;
37777;SDS011;23615;51.506;7.678;2023-01-25T12:57:22;27.27;;;16.85;;
37777;SDS011;23615;51.506;7.678;2023-01-25T13:05:29;25.80;;;15.90;;
37777;SDS011;23615;51.506;7.678;2023-01-25T13:08:16;22.60;;;14.52;;
37777;SDS011;23615;51.506;7.678;2023-01-25T13:11:04;27.47;;;15.27;;
37777;SDS011;23615;51.506;7.678;2023-01-25T13:13:34;23.08;;;14.23;;
37777;SDS011;23615;51.506;7.678;2023-01-25T13:16:21;22.40;;;14.80;;
37777;SDS011;23615;51.506;7.678;2023-01-25T13:18:53;20.75;;;13.00;;
37777;SDS011;23615;51.506;7.678;2023-01-25T13:26:47;22.63;;;13.57;;
37777;SDS011;23615;51.506;7.678;2023-01-25T13:31:56;19.25;;;12.77;;
37777;SDS011;23615;51.506;7.678;2023-01-25T13:37:21;20.08;;;12.52;;
37777;SDS011;23615;51.506;7.678;2023-01-25T13:39:46;19.55;;;12.80;;
37777;SDS011;23615;51.506;7.678;2023-01-25T13:42:18;22.35;;;12.35;;
37777;SDS011;23615;51.506;7.678;2023-01-25T13:44:47;19.60;;;12.77;;
37777;SDS011;23615;51.506;7.678;2023-01-25T13:47:16;22.83;;;13.63;;
37777;SDS011;23615;51.506;7.678;2023-01-25T13:49:53;20.60;;;13.15;;
37777;SDS011;23615;51.506;7.678;2023-01-25T13:52:24;20.45;;;13.40;;
37777;SDS011;23615;51.506;7.678;2023-01-25T13:54:53;19.10;;;12.80;;
37777;SDS011;23615;51.506;7.678;2023-01-25T13:57:21;18.85;;;12.43;;
37777;SDS011;23615;51.506;7.678;2023-01-25T13:59:56;19.45;;;12.18;;
37777;SDS011;23615;51.506;7.678;2023-01-25T14:02:23;18.58;;;12.07;;
37777;SDS011;23615;51.506;7.678;2023-01-25T14:04:50;18.30;;;12.20;;
37777;SDS011;23615;51.506;7.678;2023-01-25T14:07:17;19.65;;;12.25;;
37777;SDS011;23615;51.506;7.678;2023-01-25T14:09:45;18.45;;;11.93;;
37777;SDS011;23615;51.506;7.678;2023-01-25T14:12:35;17.80;;;11.65;;
37777;SDS011;23615;51.506;7.678;2023-01-25T14:15:24;19.20;;;12.73;;
37777;SDS011;23615;51.506;7.678;2023-01-25T14:18:08;19.02;;;12.13;;
37777;SDS011;23615;51.506;7.678;2023-01-25T14:20:38;19.00;;;12.27;;
37777;SDS011;23615;51.506;7.678;2023-01-25T14:23:04;16.83;;;11.48;;
37777;SDS011;23615;51.506;7.678;2023-01-25T14:25:32;17.63;;;11.10;;
37777;SDS011;23615;51.506;7.678;2023-01-25T14:27:59;19.23;;;13.13;;
37777;SDS011;23615;51.506;7.678;2023-01-25T14:32:53;19.27;;;12.50;;
37777;SDS011;23615;51.506;7.678;2023-01-25T14:38:00;19.83;;;13.07;;
37777;SDS011;23615;51.506;7.678;2023-01-25T14:40:26;19.40;;;12.73;;
37777;SDS011;23615;51.506;7.678;2023-01-25T14:42:53;18.50;;;12.37;;
37777;SDS011;23615;51.506;7.678;2023-01-25T14:45:21;20.05;;;12.32;;
37777;SDS011;23615;51.506;7.678;2023-01-25T14:47:48;19.97;;;12.43;;
37777;SDS011;23615;51.506;7.678;2023-01-25T14:50:30;19.90;;;12.23;;
37777;SDS011;23615;51.506;7.678;2023-01-25T14:52:56;18.38;;;13.05;;
37777;SDS011;23615;51.506;7.678;2023-01-25T14:55:22;20.17;;;12.70;;
37777;SDS011;23615;51.506;7.678;2023-01-25T14:57:48;18.10;;;11.60;;
37777;SDS011;23615;51.506;7.678;2023-01-25T15:00:21;15.60;;;10.45;;
37777;SDS011;23615;51.506;7.678;2023-01-25T15:02:52;17.57;;;11.13;;
37777;SDS011;23615;51.506;7.678;2023-01-25T15:05:21;17.85;;;11.77;;
37777;SDS011;23615;51.506;7.678;2023-01-25T15:10:28;17.52;;;11.57;;
37777;SDS011;23615;51.506;7.678;2023-01-25T15:13:00;17.90;;;11.38;;
37777;SDS011;23615;51.506;7.678;2023-01-25T15:15:28;21.10;;;12.97;;
37777;SDS011;23615;51.506;7.678;2023-01-25T15:17:56;18.80;;;12.30;;
37777;SDS011;23615;51.506;7.678;2023-01-25T15:20:35;17.10;;;11.80;;
37777;SDS011;23615;51.506;7.678;2023-01-25T15:23:19;19.93;;;13.23;;
37777;SDS011;23615;51.506;7.678;2023-01-25T15:25:53;19.77;;;12.40;;
37777;SDS011;23615;51.506;7.678;2023-01-25T15:28:24;17.95;;;11.68;;
37777;SDS011;23615;51.506;7.678;2023-01-25T15:30:51;20.08;;;13.48;;
37777;SDS011;23615;51.506;7.678;2023-01-25T15:33:21;20.50;;;13.20;;
37777;SDS011;23615;51.506;7.678;2023-01-25T15:35:51;19.37;;;12.10;;
37777;SDS011;23615;51.506;7.678;2023-01-25T15:38:17;20.95;;;13.07;;
37777;SDS011;23615;51.506;7.678;2023-01-25T15:40:44;18.73;;;11.90;;
37777;SDS011;23615;51.506;7.678;2023-01-25T15:43:13;19.83;;;13.25;;
37777;SDS011;23615;51.506;7.678;2023-01-25T15:45:41;19.63;;;12.27;;
37777;SDS011;23615;51.506;7.678;2023-01-25T15:48:12;21.75;;;13.40;;
37777;SDS011;23615;51.506;7.678;2023-01-25T15:50:39;20.80;;;13.10;;
37777;SDS011;23615;51.506;7.678;2023-01-25T15:53:05;21.60;;;13.70;;
37777;SDS011;23615;51.506;7.678;2023-01-25T15:55:31;21.80;;;13.33;;
37777;SDS011;23615;51.506;7.678;2023-01-25T15:57:57;19.08;;;11.63;;
37777;SDS011;23615;51.506;7.678;2023-01-25T16:00:22;18.27;;;12.00;;
37777;SDS011;23615;51.506;7.678;2023-01-25T16:02:48;22.33;;;13.57;;
37777;SDS011;23615;51.506;7.678;2023-01-25T16:05:16;18.38;;;12.40;;
37777;SDS011;23615;51.506;7.678;2023-01-25T16:07:42;19.60;;;12.75;;
37777;SDS011;23615;51.506;7.678;2023-01-25T16:10:22;19.97;;;12.57;;
37777;SDS011;23615;51.506;7.678;2023-01-25T16:12:48;21.83;;;13.10;;